Taiwan Taoyuan International Airport
RCTP : now visible

Aeroporto :











RITROVATECI SU...

 
LOGIN :

Iscrizione | Disclaimer

   EN    FR    IT 

 









Sommario :    VFR   VFR Marginale   IFR   IFR Intensivo   IFR Molto Intensivo
Visibilità : 
Base nubi : 
>= 8 km
>= 3000ft
5 / 8 km
1000 / 3000 ft
1500m / 5 km
500 / 1000 ft
800 / 1500m
200 / 500 ft
< 800m
< 200 ft
Simboli :   Temporali  Nebbia  Neve Forte  Precipitazioni Forti  Vento > 20 kt






- Altitudine del aeroporto : 106 ft
- Codice IATA : TPE


RCTP - Taiwan Taoyuan International

ULTIMO METAR :
  • 131704Z 05023G34KT 9999 SCT016 BKN040 22/16 Q1021 WS R05R NOSIG RMK A3016

METARs OBSOLETI :
  • 131630Z 05022KT 9999 SCT016 BKN040 22/17 Q1021 WS R05R NOSIG RMK A3016
  • 131600Z 05023KT 9999 SCT016 BKN040 22/17 Q1021 WS R05R NOSIG RMK A3016
  • 131534Z 05022G33KT 9999 SCT016 BKN040 22/17 Q1021 WS R05R NOSIG RMK A3016
  • 131500Z 05021KT 9999 SCT016 BKN040 22/18 Q1021 NOSIG RMK A3016
  • 131431Z 05020KT 9999 -RA SCT016 BKN030 22/19 Q1021 NOSIG RMK A3016

TAF TAF RCTP
Valido dal 13 a 12 ore il 14 a 18 ore UTC


131100Z 1312/1418 07012KT 9999 FEW015 BKN032
BECMG 1316/1318 04020KT
TEMPO 1320/1402 03025KT FEW012 BKN022 BKN040
TEMPO 1404/1410 05025G35KT
BECMG 1410/1412 08015KT



MetMap, La meteo Aeronautica in un colpo d'occhio ! - Copyright ORBIFLY Dicembre 2007 - Disclaimer

ORBIFLY MET'MAP TEAM :

Programmazione e sviluppo : Alexandra Zaïnal
Concezione e sviluppo : Baudouin d'Aumeries
Co-Programmazione e sviluppo : Marc-Olivier Méhu
Supporto tecnico e logistico : Manuel Goepfert
Aiuto per la traduzione : Arnaldo La Scala

Contatto : metmap@orbifly.com




FONTI E CREDITI :

   NOAA       Earth
Advisory